Time;durP1;ratioP1;P1;durP2;ratioP2;P2;SDS_P1;SDS_P2;PMS_P1;PMS_P2;Temp;Humidity;BMP_temperature;BMP_pressure;BME280_temperature;BME280_humidity;BME280_pressure;Samples;Min_cycle;Max_cycle;Signal;HPM_P1;HPM_P2
2022/09/06 00:01:08;;;;;;;5.75;2.60;;;16.50;99.90;;;;;;5036968;28;20061;-65
2022/09/06 00:03:34;;;;;;;2.58;2.28;;;16.50;99.90;;;;;;5036769;28;20044;-67
2022/09/06 00:06:04;;;;;;;;;;;16.60;99.90;;;;;;5038140;28;20163;-68
2022/09/06 00:08:29;;;;;;;3.33;2.35;;;16.50;99.90;;;;;;5037570;28;19917;-65
2022/09/06 00:10:56;;;;;;;;;;;16.50;99.90;;;;;;5038217;28;20033;-66
2022/09/06 00:13:22;;;;;;;4.32;2.35;;;16.40;99.90;;;;;;5035400;28;20670;-66
2022/09/06 00:15:47;;;;;;;;;;;16.40;99.90;;;;;;5037197;28;20048;-67
2022/09/06 00:18:13;;;;;;;3.13;2.30;;;16.40;99.90;;;;;;5030106;28;19917;-66
2022/09/06 00:20:40;;;;;;;4.15;2.58;;;16.40;99.90;;;;;;5021311;28;20043;-64
2022/09/06 00:23:06;;;;;;;3.53;2.50;;;16.40;99.90;;;;;;5026059;28;20049;-66
2022/09/06 00:25:32;;;;;;;3.58;2.50;;;16.40;99.90;;;;;;5022153;28;20104;-67
2022/09/06 00:27:59;;;;;;;;;;;16.40;99.90;;;;;;5025909;28;20116;-64
2022/09/06 00:30:25;;;;;;;5.07;2.90;;;16.50;99.90;;;;;;5020571;28;19917;-66
2022/09/06 00:32:52;;;;;;;3.42;2.50;;;16.40;99.90;;;;;;5026186;28;20029;-66
2022/09/06 00:35:19;;;;;;;3.53;2.80;;;16.50;99.90;;;;;;5021377;28;20125;-67
2022/09/06 00:37:45;;;;;;;2.53;2.33;;;16.50;99.90;;;;;;5022281;28;20797;-66
2022/09/06 00:40:10;;;;;;;;;;;16.50;99.90;;;;;;5021743;28;20065;-66
2022/09/06 00:42:36;;;;;;;4.03;2.63;;;16.60;99.90;;;;;;5024712;28;20072;-68
2022/09/06 00:45:02;;;;;;;;;;;16.60;99.90;;;;;;5021311;28;20048;-67
2022/09/06 00:47:28;;;;;;;3.50;2.60;;;16.60;99.90;;;;;;5025681;28;19924;-66
2022/09/06 00:49:57;;;;;;;;;;;16.60;99.90;;;;;;5021202;28;20041;-65
2022/09/06 00:52:25;;;;;;;8.10;2.65;;;16.60;99.90;;;;;;5025770;28;19974;-65
2022/09/06 00:54:52;;;;;;;3.13;2.33;;;16.60;99.90;;;;;;5020679;28;20041;-65
2022/09/06 00:57:18;;;;;;;5.47;3.05;;;16.70;99.90;;;;;;5025785;28;20037;-67
2022/09/06 00:59:46;;;;;;;4.35;2.92;;;16.90;99.90;;;;;;5020443;28;20037;-66
2022/09/06 01:02:12;;;;;;;3.03;2.72;;;16.90;99.90;;;;;;5024847;28;20042;-66
2022/09/06 01:04:40;;;;;;;;;;;16.90;99.90;;;;;;5017144;28;20052;-66
2022/09/06 01:07:33;;;;;;;3.42;2.50;;;16.80;99.90;;;;;;5024622;28;20008;-66
2022/09/06 01:10:04;;;;;;;3.95;2.88;;;16.70;99.90;;;;;;5018209;28;20065;-66
2022/09/06 01:12:58;;;;;;;3.05;2.30;;;16.70;99.90;;;;;;5021102;28;20037;-65
2022/09/06 01:15:37;;;;;;;5.90;2.70;;;16.70;99.90;;;;;;5021094;28;20041;-66
2022/09/06 01:18:12;;;;;;;3.90;3.17;;;16.70;99.90;;;;;;5022642;28;20472;-65
2022/09/06 01:20:57;;;;;;;6.22;3.03;;;16.80;99.90;;;;;;5024619;28;20100;-64
2022/09/06 01:23:27;;;;;;;5.03;3.00;;;16.80;99.90;;;;;;5022740;28;20050;-64
2022/09/06 01:26:28;;;;;;;3.08;2.58;;;16.80;99.90;;;;;;5021721;28;20124;-64
2022/09/06 01:28:55;;;;;;;6.75;3.08;;;16.90;99.90;;;;;;5018959;28;20029;-63
2022/09/06 01:31:37;;;;;;;3.15;2.65;;;16.90;99.90;;;;;;5017062;28;20040;-64
2022/09/06 01:34:06;;;;;;;3.25;2.60;;;16.80;99.90;;;;;;5021928;28;20068;-64
2022/09/06 01:36:46;;;;;;;4.80;2.35;;;16.80;99.90;;;;;;5021408;28;20059;-65
2022/09/06 01:39:27;;;;;;;5.40;2.92;;;16.90;99.90;;;;;;5024227;28;20715;-64
2022/09/06 01:41:55;;;;;;;5.50;2.50;;;16.90;99.90;;;;;;5025058;28;20146;-65
2022/09/06 01:44:21;;;;;;;5.60;2.80;;;16.80;99.90;;;;;;5013358;28;20048;-65
2022/09/06 01:47:07;;;;;;;5.80;2.75;;;16.70;99.90;;;;;;5023871;28;20136;-64
2022/09/06 01:49:48;;;;;;;3.60;2.97;;;16.70;99.90;;;;;;5014102;28;20129;-65
2022/09/06 01:52:27;;;;;;;3.80;2.45;;;16.70;99.90;;;;;;5056038;28;20414;-65
2022/09/06 01:55:00;;;;;;;2.72;2.42;;;16.70;99.90;;;;;;5021911;28;20052;-65
2022/09/06 01:57:50;;;;;;;3.80;2.72;;;16.70;99.90;;;;;;5016889;28;20516;-65
2022/09/06 02:00:21;;;;;;;3.47;2.97;;;16.60;99.90;;;;;;5022227;28;20374;-66
2022/09/06 02:03:12;;;;;;;3.78;3.10;;;16.60;99.90;;;;;;5024636;28;20045;-64
2022/09/06 02:05:50;;;;;;;4.32;2.65;;;16.60;99.90;;;;;;5022317;28;20046;-63
2022/09/06 02:08:32;;;;;;;4.95;3.00;;;16.60;99.90;;;;;;5023605;28;20563;-66
2022/09/06 02:11:01;;;;;;;3.35;2.33;;;16.60;99.90;;;;;;5022392;28;20042;-64
2022/09/06 02:13:31;;;;;;;6.65;2.95;;;16.60;99.90;;;;;;5020917;28;20044;-65
2022/09/06 02:16:05;;;;;;;3.78;2.78;;;16.60;99.90;;;;;;5024026;28;20072;-65
2022/09/06 02:18:46;;;;;;;4.00;2.50;;;16.50;99.90;;;;;;5021820;28;20136;-66
2022/09/06 02:21:15;;;;;;;2.85;2.53;;;16.50;99.90;;;;;;5023190;28;20045;-65
2022/09/06 02:23:43;;;;;;;4.03;3.03;;;16.60;99.90;;;;;;5020944;28;20100;-64
2022/09/06 02:26:22;;;;;;;4.68;3.10;;;16.50;99.90;;;;;;5022825;28;20425;-65
2022/09/06 02:28:48;;;;;;;7.43;2.80;;;16.50;99.90;;;;;;5019174;28;20037;-65
2022/09/06 02:31:26;;;;;;;4.32;3.35;;;16.60;99.90;;;;;;5023176;28;20545;-66
2022/09/06 02:33:52;;;;;;;4.72;3.38;;;16.60;99.90;;;;;;5018161;28;20045;-63
2022/09/06 02:36:17;;;;;;;;;;;16.50;99.90;;;;;;5024852;28;20049;-65
2022/09/06 02:38:44;;;;;;;3.17;2.80;;;16.40;99.90;;;;;;5020023;28;20345;-65
2022/09/06 02:41:12;;;;;;;3.75;2.55;;;16.30;99.90;;;;;;5022951;28;20795;-66
2022/09/06 02:43:39;;;;;;;3.10;2.35;;;16.30;99.90;;;;;;5020409;28;20505;-66
2022/09/06 02:46:04;;;;;;;6.53;3.20;;;16.40;99.90;;;;;;5024738;28;20049;-65
2022/09/06 02:48:30;;;;;;;;;;;16.40;99.90;;;;;;5019777;28;20040;-64
2022/09/06 02:50:55;;;;;;;5.65;2.95;;;16.40;99.90;;;;;;5020624;28;20055;-65
2022/09/06 02:53:21;;;;;;;;;;;16.40;99.90;;;;;;5022580;28;20067;-65
2022/09/06 02:55:47;;;;;;;9.68;2.55;;;16.40;99.90;;;;;;5019804;28;19917;-65
2022/09/06 02:58:14;;;;;;;;;;;16.40;99.90;;;;;;5023674;28;20038;-65
2022/09/06 03:00:39;;;;;;;5.90;2.88;;;16.40;99.90;;;;;;5019289;28;19965;-65
2022/09/06 03:03:05;;;;;;;;;;;16.50;99.90;;;;;;5023353;28;20513;-66
2022/09/06 03:05:31;;;;;;;3.90;2.70;;;16.50;99.90;;;;;;5023048;28;19920;-65
2022/09/06 03:07:56;;;;;;;;;;;16.50;99.90;;;;;;5041010;28;20681;-63
2022/09/06 03:10:23;;;;;;;3.38;2.58;;;16.50;99.90;;;;;;5022582;28;19944;-65
2022/09/06 03:12:49;;;;;;;3.20;2.78;;;16.50;99.90;;;;;;5023538;28;20053;-64
2022/09/06 03:15:15;;;;;;;;;;;16.50;99.90;;;;;;5021527;28;20142;-65
2022/09/06 03:17:42;;;;;;;3.70;2.55;;;16.60;99.90;;;;;;5023677;28;19924;-66
2022/09/06 03:20:09;;;;;;;3.80;2.42;;;16.60;99.90;;;;;;5017217;28;20037;-65
2022/09/06 03:22:35;;;;;;;3.83;2.67;;;16.60;99.90;;;;;;5023413;28;20042;-65
2022/09/06 03:25:01;;;;;;;6.43;3.10;;;16.70;99.90;;;;;;5018588;28;20038;-65
2022/09/06 03:27:27;;;;;;;;;;;16.80;99.90;;;;;;5025310;28;20056;-65
2022/09/06 03:29:52;;;;;;;6.30;2.60;;;16.80;99.90;;;;;;5020911;28;19924;-65
2022/09/06 03:32:18;;;;;;;;;;;16.80;99.90;;;;;;5025854;28;20033;-65
2022/09/06 03:34:43;;;;;;;4.25;2.58;;;16.80;99.90;;;;;;5020269;28;19917;-65
2022/09/06 03:37:09;;;;;;;;;;;16.80;99.90;;;;;;5022732;28;20037;-65
2022/09/06 03:39:34;;;;;;;4.10;2.40;;;16.90;99.90;;;;;;5019866;28;19921;-65
2022/09/06 03:42:00;;;;;;;4.50;2.60;;;16.90;99.90;;;;;;5024866;28;20037;-65
2022/09/06 03:44:26;;;;;;;;;;;16.90;99.90;;;;;;5019883;28;20045;-65
2022/09/06 03:46:51;;;;;;;3.40;2.35;;;17.00;99.90;;;;;;5023265;28;19925;-64
2022/09/06 03:49:17;;;;;;;3.30;1.90;;;17.10;99.90;;;;;;5019252;28;20452;-65
2022/09/06 03:51:43;;;;;;;;;;;17.20;99.90;;;;;;5024063;28;20045;-64
2022/09/06 03:54:08;;;;;;;4.53;1.60;;;17.30;99.90;;;;;;5023585;28;20007;-65
2022/09/06 03:56:34;;;;;;;5.93;1.90;;;17.30;99.90;;;;;;5026869;28;20786;-66
2022/09/06 03:59:00;;;;;;;2.40;1.58;;;17.40;99.90;;;;;;5024359;28;20044;-66
2022/09/06 04:01:26;;;;;;;;;;;17.50;99.90;;;;;;5059501;28;20046;-65
2022/09/06 04:03:52;;;;;;;3.00;1.98;;;17.50;99.90;;;;;;5021410;28;19922;-64
2022/09/06 04:06:17;;;;;;;;;;;17.50;99.90;;;;;;5026044;28;20564;-65
2022/09/06 04:08:43;;;;;;;2.78;1.90;;;17.50;99.90;;;;;;5022677;28;19976;-65
2022/09/06 04:11:08;;;;;;;;;;;17.60;99.90;;;;;;5026478;28;20130;-65
2022/09/06 04:13:35;;;;;;;2.67;1.83;;;17.50;99.90;;;;;;5022786;28;20094;-65
2022/09/06 04:16:01;;;;;;;2.13;1.73;;;17.50;99.90;;;;;;5023944;28;20045;-65
2022/09/06 04:18:27;;;;;;;6.28;1.80;;;17.60;99.90;;;;;;5023729;28;20076;-65
2022/09/06 04:20:54;;;;;;;;;;;17.60;99.90;;;;;;5023152;28;20425;-65
2022/09/06 04:23:22;;;;;;;3.58;2.15;;;17.60;99.90;;;;;;5020976;28;19921;-65
2022/09/06 04:25:53;;;;;;;2.08;1.65;;;17.60;99.90;;;;;;5025954;28;20120;-66
2022/09/06 04:28:19;;;;;;;2.15;1.70;;;17.60;99.90;;;;;;5023281;28;20069;-66
2022/09/06 04:30:51;;;;;;;4.30;2.00;;;17.60;99.90;;;;;;5021186;28;20052;-66
2022/09/06 04:33:17;;;;;;;4.68;1.98;;;17.60;99.90;;;;;;5024042;28;20454;-65
2022/09/06 04:35:46;;;;;;;;;;;17.60;99.90;;;;;;5026945;28;20053;-65
2022/09/06 04:38:12;;;;;;;3.25;1.83;;;17.60;99.90;;;;;;5024404;28;20004;-65
2022/09/06 04:40:37;;;;;;;;;;;17.60;99.90;;;;;;5021754;28;20545;-65
2022/09/06 04:43:03;;;;;;;5.10;1.88;;;17.60;99.90;;;;;;5024992;28;20106;-67
2022/09/06 04:45:28;;;;;;;;;;;17.60;99.90;;;;;;5023833;28;20042;-65
2022/09/06 04:47:54;;;;;;;2.70;2.33;;;17.60;99.90;;;;;;5025703;28;19940;-65
2022/09/06 04:50:20;;;;;;;;;;;17.60;99.90;;;;;;5020608;28;20041;-65
2022/09/06 04:52:45;;;;;;;4.13;1.95;;;17.60;99.90;;;;;;5027378;28;19917;-66
2022/09/06 04:55:11;;;;;;;;;;;17.50;99.90;;;;;;5020476;28;20116;-65
2022/09/06 04:57:37;;;;;;;6.03;1.90;;;17.50;99.90;;;;;;5025023;28;19971;-63
2022/09/06 05:00:02;;;;;;;;;;;17.50;99.90;;;;;;5018384;28;20142;-65
2022/09/06 05:02:28;;;;;;;3.92;1.90;;;17.50;99.90;;;;;;5024537;28;19928;-64
2022/09/06 05:04:54;;;;;;;;;;;17.50;99.90;;;;;;5022037;28;20050;-65
2022/09/06 05:07:20;;;;;;;3.13;1.55;;;17.50;99.90;;;;;;5017759;28;19925;-65
2022/09/06 05:09:45;;;;;;;;;;;17.50;99.90;;;;;;5021350;28;20044;-65
2022/09/06 05:12:11;;;;;;;2.53;1.70;;;17.50;99.90;;;;;;5027475;28;19924;-65
2022/09/06 05:14:36;;;;;;;;;;;17.50;99.90;;;;;;5021459;28;20476;-65
2022/09/06 05:17:02;;;;;;;2.92;2.08;;;17.50;99.90;;;;;;5025239;28;20288;-65
2022/09/06 05:19:28;;;;;;;5.18;1.98;;;17.50;99.90;;;;;;5024639;28;20071;-66
2022/09/06 05:21:53;;;;;;;;;;;17.40;99.90;;;;;;5022293;28;20042;-64
2022/09/06 05:24:19;;;;;;;7.38;2.38;;;17.40;99.90;;;;;;5021271;28;19924;-64
2022/09/06 05:26:44;;;;;;;5.78;2.67;;;17.20;99.90;;;;;;5019011;28;20607;-64
2022/09/06 05:29:10;;;;;;;;;;;17.20;99.90;;;;;;5018462;28;20038;-64
2022/09/06 05:31:35;;;;;;;3.42;2.42;;;17.10;99.90;;;;;;5017887;28;19921;-64
2022/09/06 05:34:01;;;;;;;;;;;17.10;99.90;;;;;;5021426;28;20045;-65
2022/09/06 05:36:28;;;;;;;3.17;2.00;;;17.10;99.90;;;;;;5020611;28;20552;-63
2022/09/06 05:38:55;;;;;;;5.93;3.00;;;17.10;99.90;;;;;;5016974;28;20044;-64
2022/09/06 05:41:22;;;;;;;6.47;3.00;;;17.10;99.90;;;;;;5014064;28;20063;-64
2022/09/06 05:43:48;;;;;;;4.50;2.65;;;17.10;99.90;;;;;;5021602;28;20154;-64
2022/09/06 05:46:14;;;;;;;;;;;17.10;99.90;;;;;;5025257;28;20406;-66
2022/09/06 05:48:40;;;;;;;5.47;3.00;;;17.10;99.90;;;;;;5024125;28;19935;-64
2022/09/06 05:51:11;;;;;;;;;;;17.10;99.90;;;;;;5058042;28;20041;-65
2022/09/06 05:53:42;;;;;;;4.28;2.65;;;17.10;99.90;;;;;;5021352;28;20301;-65
2022/09/06 05:56:09;;;;;;;4.90;2.67;;;17.20;99.90;;;;;;5025860;28;20049;-65
2022/09/06 05:58:35;;;;;;;4.68;2.53;;;17.30;99.90;;;;;;5022457;28;20045;-65
2022/09/06 06:01:04;;;;;;;;;;;17.40;99.90;;;;;;5021884;28;20048;-64
2022/09/06 06:03:29;;;;;;;3.42;2.30;;;17.60;99.90;;;;;;5020812;28;19917;-66
2022/09/06 06:05:55;;;;;;;;;;;17.60;99.90;;;;;;5025051;28;20402;-66
2022/09/06 06:08:20;;;;;;;4.10;1.65;;;18.20;99.90;;;;;;5022782;28;20566;-65
2022/09/06 06:10:46;;;;;;;;;;;18.70;99.90;;;;;;5024617;28;20597;-64
2022/09/06 06:13:11;;;;;;;6.22;2.10;;;19.00;99.90;;;;;;5022648;28;19921;-63
2022/09/06 06:15:37;;;;;;;5.75;2.50;;;19.60;99.80;;;;;;5022309;28;20705;-65
2022/09/06 06:18:02;;;;;;;4.03;2.50;;;20.00;99.00;;;;;;5020585;28;20037;-66
2022/09/06 06:20:28;;;;;;;4.30;2.10;;;20.50;97.60;;;;;;5022968;28;20425;-68
2022/09/06 06:22:54;;;;;;;6.13;2.15;;;20.90;97.00;;;;;;5022177;28;20038;-64
2022/09/06 06:25:24;;;;;;;3.85;2.60;;;20.80;96.50;;;;;;5019660;28;20076;-63
2022/09/06 06:27:51;;;;;;;3.47;2.17;;;20.60;96.80;;;;;;5024629;28;20524;-64
2022/09/06 06:30:16;;;;;;;3.80;2.28;;;20.40;96.70;;;;;;5054373;28;20029;-65
2022/09/06 06:32:42;;;;;;;4.75;2.03;;;20.30;97.10;;;;;;5020920;28;20041;-66
2022/09/06 06:35:08;;;;;;;13.27;2.67;;;20.20;96.80;;;;;;5019982;28;20428;-64
2022/09/06 06:37:34;;;;;;;6.57;2.22;;;20.10;97.20;;;;;;5022292;28;20048;-65
2022/09/06 06:39:59;;;;;;;;;;;20.00;97.80;;;;;;5021084;28;20045;-64
2022/09/06 06:42:25;;;;;;;5.82;2.38;;;20.00;97.90;;;;;;5019352;28;19996;-66
2022/09/06 06:44:52;;;;;;;10.35;2.30;;;19.90;98.00;;;;;;5017316;28;20045;-67
2022/09/06 06:47:18;;;;;;;16.95;2.10;;;19.90;98.60;;;;;;5009943;28;20042;-68
2022/09/06 06:49:44;;;;;;;9.73;2.33;;;19.80;98.80;;;;;;5022344;28;20509;-67
2022/09/06 06:52:09;;;;;;;;;;;19.90;98.30;;;;;;5021573;28;20045;-66
2022/09/06 06:54:36;;;;;;;9.82;1.88;;;20.00;98.30;;;;;;5018886;28;19968;-64
2022/09/06 06:57:03;;;;;;;3.25;1.65;;;20.10;98.30;;;;;;5009046;28;20045;-65
2022/09/06 06:59:29;;;;;;;2.45;1.70;;;20.10;97.30;;;;;;5020563;28;20068;-65
2022/09/06 07:01:55;;;;;;;2.47;2.08;;;20.20;98.10;;;;;;5017902;28;20498;-66
2022/09/06 07:04:20;;;;;;;;;;;20.20;97.90;;;;;;5023438;28;20037;-66
2022/09/06 07:06:50;;;;;;;5.65;1.75;;;20.20;97.10;;;;;;5019963;28;19925;-65
2022/09/06 07:09:17;;;;;;;8.85;1.90;;;20.20;96.80;;;;;;5024378;28;20038;-65
2022/09/06 07:11:43;;;;;;;4.72;2.10;;;20.20;96.80;;;;;;5018452;28;20053;-66
2022/09/06 07:14:08;;;;;;;;;;;20.20;96.20;;;;;;5025900;28;20042;-65
2022/09/06 07:16:34;;;;;;;3.55;1.60;;;20.30;97.40;;;;;;5023181;28;20603;-64
2022/09/06 07:19:00;;;;;;;12.10;2.15;;;20.30;97.00;;;;;;5021100;28;20080;-65
2022/09/06 07:21:25;;;;;;;;;;;20.40;96.70;;;;;;5021212;28;20444;-64
2022/09/06 07:23:52;;;;;;;10.60;2.47;;;20.40;95.50;;;;;;5023132;28;19916;-65
2022/09/06 07:26:24;;;;;;;4.35;1.50;;;20.50;95.60;;;;;;5016579;28;20052;-65
2022/09/06 07:28:54;;;;;;;2.20;1.40;;;20.60;94.60;;;;;;5027066;28;20033;-67
2022/09/06 07:31:20;;;;;;;3.30;1.33;;;20.70;94.60;;;;;;5027674;28;20655;-66
2022/09/06 07:33:46;;;;;;;;;;;20.90;93.30;;;;;;5024329;28;20034;-65
2022/09/06 07:36:11;;;;;;;2.58;1.05;;;20.90;93.90;;;;;;5026888;28;19917;-65
2022/09/06 07:38:37;;;;;;;4.28;1.15;;;21.10;93.40;;;;;;5029975;28;20036;-66
2022/09/06 07:41:09;;;;;;;4.95;1.65;;;21.20;93.20;;;;;;5026642;28;20068;-66
2022/09/06 07:43:35;;;;;;;2.28;1.20;;;21.40;92.60;;;;;;5027084;28;20502;-63
2022/09/06 07:46:07;;;;;;;2.67;1.00;;;21.40;91.90;;;;;;5025322;28;20042;-63
2022/09/06 07:48:35;;;;;;;3.28;1.00;;;21.50;92.00;;;;;;5021180;28;20037;-64
2022/09/06 07:51:03;;;;;;;3.35;0.82;;;21.50;92.20;;;;;;5022190;28;20042;-65
2022/09/06 07:53:29;;;;;;;3.55;1.00;;;21.50;91.70;;;;;;5026246;28;20127;-66
2022/09/06 07:55:54;;;;;;;1.83;1.30;;;21.50;91.10;;;;;;5026099;28;20555;-66
2022/09/06 07:58:21;;;;;;;2.30;1.15;;;21.60;91.40;;;;;;5026409;28;20048;-67
2022/09/06 08:00:47;;;;;;;8.23;1.08;;;21.70;91.40;;;;;;5024182;28;20068;-64
2022/09/06 08:03:13;;;;;;;2.00;0.98;;;21.80;90.80;;;;;;5033452;28;20068;-64
2022/09/06 08:05:38;;;;;;;2.10;0.90;;;21.90;90.50;;;;;;5035298;28;20508;-65
2022/09/06 08:08:04;;;;;;;2.33;0.93;;;22.30;90.60;;;;;;5039559;28;20503;-66
2022/09/06 08:10:29;;;;;;;6.15;1.00;;;23.60;86.60;;;;;;5032081;28;20084;-66
2022/09/06 08:12:55;;;;;;;3.47;1.20;;;24.30;82.00;;;;;;5035167;28;20363;-66
2022/09/06 08:15:21;;;;;;;1.10;0.90;;;25.40;81.00;;;;;;5036795;28;20493;-66
2022/09/06 08:17:48;;;;;;;2.13;0.90;;;26.80;74.70;;;;;;5034087;28;20552;-66
2022/09/06 08:20:14;;;;;;;1.75;0.88;;;27.90;73.80;;;;;;5032769;28;20042;-67
2022/09/06 08:22:40;;;;;;;2.10;1.25;;;28.40;69.00;;;;;;5034848;28;20033;-66
2022/09/06 08:25:06;;;;;;;2.35;1.10;;;28.30;67.60;;;;;;5035299;28;20466;-67
2022/09/06 08:27:32;;;;;;;2.88;1.20;;;28.80;67.60;;;;;;5037431;28;20044;-68
2022/09/06 08:29:58;;;;;;;2.13;1.10;;;29.30;62.10;;;;;;5036422;28;20121;-67
2022/09/06 08:32:23;;;;;;;5.57;0.80;;;29.00;62.80;;;;;;5037506;28;20116;-67
2022/09/06 08:34:49;;;;;;;3.47;1.25;;;28.20;62.40;;;;;;5030365;28;20033;-66
2022/09/06 08:37:15;;;;;;;2.35;0.90;;;27.30;64.80;;;;;;5025489;28;20037;-67
2022/09/06 08:39:41;;;;;;;0.85;0.82;;;26.40;69.20;;;;;;5028109;28;20139;-66
2022/09/06 08:42:07;;;;;;;1.00;0.95;;;25.60;70.60;;;;;;5033077;28;20732;-66
2022/09/06 08:44:39;;;;;;;1.98;0.60;;;25.30;72.60;;;;;;5034899;28;20040;-66
2022/09/06 08:47:11;;;;;;;1.58;1.00;;;24.90;72.70;;;;;;5024738;28;20041;-64
2022/09/06 08:49:45;;;;;;;2.33;1.42;;;24.70;73.20;;;;;;5029477;28;20084;-67
2022/09/06 08:52:21;;;;;;;1.85;1.08;;;24.60;73.20;;;;;;5032873;28;20036;-66
2022/09/06 08:54:47;;;;;;;;;;;24.60;75.20;;;;;;5025352;28;20050;-63
2022/09/06 08:57:49;;;;;;;3.75;1.48;;;24.60;73.90;;;;;;5035387;28;19970;-66
2022/09/06 09:00:17;;;;;;;1.42;1.02;;;24.70;75.50;;;;;;5033928;28;20079;-67
2022/09/06 09:03:06;;;;;;;2.97;1.20;;;24.60;75.50;;;;;;5038058;28;20040;-66
2022/09/06 09:05:36;;;;;;;2.83;1.13;;;24.50;76.00;;;;;;5037303;28;20819;-66
2022/09/06 09:08:24;;;;;;;2.17;1.15;;;24.70;76.30;;;;;;5039571;28;20044;-66
2022/09/06 09:10:59;;;;;;;2.78;1.10;;;24.80;76.00;;;;;;5031197;28;20029;-67
2022/09/06 09:13:37;;;;;;;5.97;1.60;;;24.80;76.50;;;;;;5037772;28;20037;-67
2022/09/06 09:16:03;;;;;;;2.15;1.35;;;25.00;76.00;;;;;;5032147;28;20053;-67
2022/09/06 09:18:33;;;;;;;1.98;1.35;;;25.10;76.40;;;;;;5035440;28;20120;-67
2022/09/06 09:20:59;;;;;;;1.67;1.00;;;25.00;74.70;;;;;;5028567;28;20033;-67
2022/09/06 09:23:26;;;;;;;2.53;1.38;;;24.80;76.20;;;;;;5037293;28;20128;-65
2022/09/06 09:25:53;;;;;;;3.97;1.77;;;24.70;75.40;;;;;;5032062;28;20742;-65
2022/09/06 09:28:22;;;;;;;5.95;1.38;;;24.40;77.00;;;;;;5036295;28;20124;-66
2022/09/06 09:30:53;;;;;;;2.17;1.30;;;24.20;77.70;;;;;;5031136;28;20193;-67
2022/09/06 09:33:32;;;;;;;4.10;1.42;;;24.10;78.40;;;;;;5037626;28;20036;-66
2022/09/06 09:36:00;;;;;;;3.65;1.80;;;24.00;79.30;;;;;;5033192;28;20439;-66
2022/09/06 09:38:29;;;;;;;2.17;1.85;;;23.90;80.40;;;;;;5034020;28;20076;-67
2022/09/06 09:40:59;;;;;;;5.57;1.67;;;23.80;81.40;;;;;;5033898;28;20034;-67
2022/09/06 09:43:35;;;;;;;3.88;1.33;;;23.70;82.70;;;;;;5036801;28;20041;-66
2022/09/06 09:46:29;;;;;;;1.98;1.20;;;23.90;83.30;;;;;;5034124;28;20797;-66
2022/09/06 09:49:23;;;;;;;2.35;1.50;;;24.30;80.80;;;;;;5033359;28;20037;-66
2022/09/06 09:52:12;;;;;;;2.15;1.23;;;24.60;79.60;;;;;;5028657;28;20045;-67
2022/09/06 09:54:42;;;;;;;2.67;1.40;;;24.80;77.20;;;;;;5033575;28;20068;-66
2022/09/06 09:57:16;;;;;;;1.50;1.40;;;24.80;78.20;;;;;;5034154;28;20037;-66
2022/09/06 09:59:44;;;;;;;4.25;1.48;;;24.90;77.40;;;;;;5033760;28;20061;-66
2022/09/06 10:02:31;;;;;;;3.88;1.50;;;25.00;76.00;;;;;;5035949;28;20524;-67
2022/09/06 10:05:08;;;;;;;3.97;1.50;;;25.10;76.10;;;;;;5033212;28;20097;-66
2022/09/06 10:07:41;;;;;;;2.03;1.48;;;24.90;77.40;;;;;;5035554;28;20486;-68
2022/09/06 10:10:12;;;;;;;2.28;1.55;;;24.70;78.40;;;;;;5017757;28;20037;-65
2022/09/06 10:12:40;;;;;;;3.67;1.75;;;24.50;77.40;;;;;;5057954;28;20105;-63
2022/09/06 10:15:11;;;;;;;3.50;1.77;;;24.30;79.90;;;;;;5029229;28;20033;-63
2022/09/06 10:17:50;;;;;;;3.20;1.85;;;24.20;82.50;;;;;;5026718;28;20512;-62
2022/09/06 10:20:16;;;;;;;3.45;1.40;;;24.20;83.80;;;;;;5031248;28;20037;-62
2022/09/06 10:23:13;;;;;;;1.92;1.70;;;24.20;82.50;;;;;;5035600;28;20037;-62
2022/09/06 10:25:45;;;;;;;5.50;1.73;;;24.30;82.90;;;;;;5028028;28;20041;-61
2022/09/06 10:28:37;;;;;;;2.97;1.90;;;24.30;79.80;;;;;;5027621;28;20132;-63
2022/09/06 10:31:30;;;;;;;5.03;1.90;;;24.20;78.90;;;;;;5021203;28;20477;-63
2022/09/06 10:34:10;;;;;;;6.93;1.67;;;24.10;80.40;;;;;;5026720;28;20340;-63
2022/09/06 10:37:02;;;;;;;8.48;1.95;;;24.00;80.40;;;;;;5023856;28;20060;-62
2022/09/06 10:39:49;;;;;;;4.25;1.67;;;24.00;81.40;;;;;;5017261;28;20049;-63
2022/09/06 10:42:28;;;;;;;4.75;1.88;;;24.00;81.90;;;;;;5026279;28;20649;-64
2022/09/06 10:45:15;;;;;;;3.40;2.00;;;24.10;83.00;;;;;;5056955;28;20076;-64
2022/09/06 10:47:52;;;;;;;;;;;24.10;81.70;;;;;;5030755;28;20037;-63
2022/09/06 10:50:18;;;;;;;6.75;1.90;;;24.00;80.80;;;;;;5026371;28;19935;-64
2022/09/06 10:52:47;;;;;;;4.50;2.00;;;24.00;80.70;;;;;;5033644;28;20043;-65
2022/09/06 10:55:16;;;;;;;6.25;2.20;;;24.30;80.60;;;;;;5031222;28;20043;-63
2022/09/06 10:57:54;;;;;;;2.67;1.63;;;24.50;80.40;;;;;;5034654;28;20036;-64
2022/09/06 11:00:20;;;;;;;3.00;2.08;;;24.40;80.50;;;;;;5023061;28;20044;-65
2022/09/06 11:02:50;;;;;;;2.47;1.90;;;24.30;81.10;;;;;;5013678;28;20048;-63
2022/09/06 11:05:22;;;;;;;3.63;2.08;;;24.20;81.40;;;;;;5026536;28;20048;-64
2022/09/06 11:07:53;;;;;;;4.82;1.80;;;24.20;81.60;;;;;;5031685;28;20050;-63
2022/09/06 11:10:37;;;;;;;4.38;1.85;;;24.10;83.00;;;;;;5061077;28;20119;-63
2022/09/06 11:13:09;;;;;;;2.67;1.50;;;24.20;83.60;;;;;;5024679;28;20395;-63
2022/09/06 11:16:14;;;;;;;3.60;1.80;;;24.10;83.10;;;;;;5023077;28;20067;-65
2022/09/06 11:19:07;;;;;;;3.88;1.63;;;24.10;82.30;;;;;;5030987;28;20052;-63
2022/09/06 11:21:49;;;;;;;2.67;1.88;;;24.10;83.50;;;;;;5018280;28;20120;-63
2022/09/06 11:24:43;;;;;;;4.40;1.67;;;24.30;83.60;;;;;;5023253;28;20494;-63
2022/09/06 11:27:32;;;;;;;2.60;1.85;;;24.70;79.70;;;;;;5033348;28;20041;-63
2022/09/06 11:30:00;;;;;;;4.20;1.70;;;24.90;77.90;;;;;;5063416;28;20096;-63
2022/09/06 11:32:38;;;;;;;2.90;1.75;;;25.20;78.80;;;;;;5026488;28;20099;-63
2022/09/06 11:35:08;;;;;;;7.50;1.77;;;25.60;76.70;;;;;;5058986;28;20060;-63
2022/09/06 11:37:41;;;;;;;15.05;2.40;;;25.70;76.40;;;;;;5033060;28;20192;-62
2022/09/06 11:40:23;;;;;;;24.23;2.30;;;25.80;75.30;;;;;;5026475;28;20037;-64
2022/09/06 11:42:48;;;;;;;21.23;3.00;;;25.90;75.90;;;;;;5034777;28;20033;-62
2022/09/06 11:45:34;;;;;;;3.42;1.65;;;25.90;75.20;;;;;;5033157;28;20351;-63
2022/09/06 11:48:23;;;;;;;6.20;1.60;;;25.70;74.90;;;;;;5035393;28;20041;-63
2022/09/06 11:51:05;;;;;;;2.40;1.60;;;25.40;77.40;;;;;;5022091;28;20314;-63
2022/09/06 11:53:56;;;;;;;9.07;2.10;;;25.40;78.30;;;;;;5031645;28;20037;-63
2022/09/06 11:56:31;;;;;;;4.00;1.77;;;25.30;77.30;;;;;;5032104;28;20044;-61
2022/09/06 11:59:02;;;;;;;3.53;1.35;;;25.10;77.60;;;;;;5031752;28;20114;-62
2022/09/06 12:01:28;;;;;;;2.60;1.33;;;25.10;78.20;;;;;;5034121;28;20091;-63
2022/09/06 12:03:56;;;;;;;8.00;1.55;;;25.10;77.30;;;;;;5036130;28;20037;-63
2022/09/06 12:06:26;;;;;;;3.13;1.48;;;25.10;78.30;;;;;;5031403;28;20626;-63
2022/09/06 12:08:53;;;;;;;6.15;1.63;;;25.00;78.40;;;;;;5027503;28;20120;-62
2022/09/06 12:11:42;;;;;;;4.32;1.83;;;25.00;79.20;;;;;;5022036;28;20060;-63
2022/09/06 12:14:32;;;;;;;2.20;1.25;;;24.90;79.80;;;;;;5023796;28;20095;-63
2022/09/06 12:16:57;;;;;;;1.63;1.40;;;24.80;79.90;;;;;;5026680;28;20045;-62
2022/09/06 12:20:06;;;;;;;2.85;1.48;;;24.90;79.80;;;;;;5026227;28;20048;-62
2022/09/06 12:22:31;;;;;;;2.33;1.13;;;25.00;78.80;;;;;;5010288;28;20045;-63
2022/09/06 12:25:08;;;;;;;2.95;1.20;;;24.90;79.70;;;;;;5024318;28;20045;-62
2022/09/06 12:27:49;;;;;;;5.35;1.35;;;25.20;79.20;;;;;;5026111;28;20077;-62
2022/09/06 12:30:36;;;;;;;7.60;1.60;;;25.60;76.00;;;;;;5026380;28;20045;-62
2022/09/06 12:33:07;;;;;;;1.80;1.42;;;25.70;72.80;;;;;;5037680;28;20037;-64
2022/09/06 12:35:33;;;;;;;1.50;0.90;;;25.70;73.20;;;;;;5024124;28;20038;-62
2022/09/06 12:38:00;;;;;;;7.97;1.63;;;25.50;72.50;;;;;;5028829;28;20045;-62
2022/09/06 12:40:50;;;;;;;5.60;1.45;;;25.40;74.20;;;;;;5024917;28;20794;-62
2022/09/06 12:43:17;;;;;;;2.30;1.33;;;25.50;73.10;;;;;;5024940;28;20132;-62
2022/09/06 12:45:45;;;;;;;4.32;1.58;;;25.40;74.80;;;;;;5021097;28;20077;-63
2022/09/06 12:48:24;;;;;;;2.83;1.40;;;25.30;75.30;;;;;;5022138;28;20041;-61
2022/09/06 12:51:18;;;;;;;6.13;1.25;;;25.50;74.90;;;;;;5023706;28;20059;-62
2022/09/06 12:53:52;;;;;;;1.40;1.00;;;25.80;71.50;;;;;;5015647;28;20046;-62
2022/09/06 12:56:20;;;;;;;1.55;1.05;;;26.00;70.30;;;;;;5023474;28;20505;-63
2022/09/06 12:58:46;;;;;;;3.42;1.00;;;26.10;71.20;;;;;;5028222;28;20041;-63
2022/09/06 13:01:33;;;;;;;2.72;1.10;;;26.50;71.10;;;;;;5023737;28;20420;-62
2022/09/06 13:04:10;;;;;;;3.25;1.08;;;26.70;70.00;;;;;;5019643;28;20048;-63
2022/09/06 13:06:41;;;;;;;3.00;0.75;;;26.90;67.80;;;;;;5023197;28;20049;-63
2022/09/06 13:09:14;;;;;;;2.03;0.98;;;27.10;68.10;;;;;;5028145;28;20033;-63
2022/09/06 13:11:44;;;;;;;3.10;1.30;;;27.10;68.40;;;;;;5026559;28;20275;-62
2022/09/06 13:14:24;;;;;;;1.98;1.40;;;27.20;68.90;;;;;;5024116;28;20037;-63
2022/09/06 13:16:51;;;;;;;2.60;1.40;;;27.30;70.20;;;;;;5028131;28;20041;-63
2022/09/06 13:19:30;;;;;;;7.38;1.65;;;27.40;70.30;;;;;;5029088;28;20616;-63